Timeline UpdatesTrip UpdatesNews PostsPvt PostsTravel TipsAdmin PostsConv PostsFollowed PostsChat RequestsBlog PostsPNR Posts

Disclaimer
Search
 
 
Sun Apr 20, 2014 17:16:06 ISTHomeTrainsΣChainsAtlasPNRForumGalleryNewsFAQTripsMembersLoginFeedback
No Recent News for this Train
Other Trains in the News **new
Latest...
.
Thu Nov 14, 2013 (06:37PM)
⇐ Return Journey: Train# 19019

19020/Dehradun - Mumbai Bandra Terminus Express

Apr 15 (1:35PM)
Change Departure Station:
Change Arrival Station:
Post a Train Travel TipPost a Train Travel Tip **new
Post a Comment/Question/Picture/VideoPost a Comment/Question/Picture/Video
Pantry/Catering
✕ NO Pantry Car
✓ Catering Avbl
Loco/Rake Reversals
SRE/Saharanpur Junction (6); LRJ/Laksar Junction (4);
RSA - Rake Sharing
Rake/Coach Composition
LOCO-SLR-HCPV-GEN-GEN-AB1-S1-S2-S3-S4-S5-S6-S7-S8-S9-SLR
Loco
GZB WAP-7 NZM-BDTS. ddn to nzm tkd wdp 3a. By Er...
Read more...
Ankit Shotra Bhagat Entry# 595554
News    PNR    Forum    Time-Table    Availability    Fare Chart    Map    Arr/Dep History    Trips    Gallery    ΣChains    X/O    Timeline    
Travel Time: 6h 25m    18 halts    Distance: 267 km    Avg Speed: 41 km/hr
Type: Mail/Express
Zone: WR/Western
Departs @ 07:50 (Avg 12m late)
Platform# 2
SMTWTFS
Kota Junction/KOTA 
Arrives @ 14:15 (Avg 1m early)
Platform# 4
SMTWTFS
Ratlam Junction/RTM 

18 halts. 33 intermediate Stations between Kota Junction and Ratlam Junction

Show ALL intermediate Stations  Show Old Time-Table

#CodeStation NameX/OArrivesAvgDepartsAvgHaltPFDay#KmSpeedElevZoneAddress
1DDNDehradun (4)  -10:35+021-773.141648mNRDehradun, Uttarakhand
2DWODoiwala  11:04+411:06+42m--1-753.339484mNRDehradun, Uttarakhand
3RWLRaiwala Junction (2)X  11:38+211:40+152m21-732.620361mNRRishikesh, Uttarakhand
4MOTCMotichur (2)X  12:00+712:02+82m11-726.021312mNRHaridwar, Uttarakhand
5HWHaridwar Junction (9)X  12:15+812:45+1030m31-721.430294mNRHaridwar, Uttarakhand
6JWPJwalapurX  12:53+1212:55+122m--1-717.521292mNRHaridwar, Uttarakhand
7LRJLaksar Junction (4)X14:00+414:25+525m--1-694.559238mNRLaksar, Uttarakhand
8RKRoorkee (3)X  14:43+814:45+102m31-676.742264mNRRoorkee - 247667, Uttarakhand
9SRESaharanpur Junction (6)X15:35+516:05+130m41-642.046276mNRSaharanpur, Uttar Pradesh
10DBDDeoband (2)X  16:50+516:52+72m21-607.851258mNRSaharanpur, Uttar Pradesh
11MOZMuzaffarnagar (3)X  17:20+617:22+192m21-583.867247mNRMuzaffarNagar, Uttar Pradesh
12KATKhatauli (2)  17:42+2217:44+242m11-561.673239mNRKhatauli, Uttar Pradesh
13MUTMeerut Cantt. (2)  18:08+3118:10+322m11-532.510230mNRMeerut, Uttar Pradesh
14MTCMeerut City Junction (6)X18:35+1619:20+1045m41-528.283229mNRMeerut, Uttar Pradesh
15MDNRModinagar (2)X  19:34+1719:36+182m21-508.767221mNRGhaziabad, Uttar Pradesh
16MUDMuradnagar (2)  19:45+1919:47+192m21-498.647220mNRGhaziabad, Uttar Pradesh
17GZNNew Ghaziabad (2)X  20:02-20:04-2m21-486.914213mNRGhaziabad, Uttar Pradesh
18GZBGhaziabad Junction (6)X  20:30+820:32+102m41-481.045217mNRGhaziabad, Uttar Pradesh
19SBBSahibabad Junction (5)X  20:41+1620:43+162m--1-474.330209mNRGhaziabad, Uttar Pradesh
20NZMDelhi Hazrat Nizamuddin (7)XO21:15+1921:55+1440m11-458.225209mNRNizamuddin East/Sarai KaleKhan Bus Terminal, Delhi NCT
21TKDTuglakabad (4)XO  22:18+1522:20+162m--1-448.528213mNRNear Tughlakabad Metro Station, Delhi NCT
22FDBFaridabad (4)  22:44+1222:46+132m31-437.440206mNRFaridabad, Haryana
23BVHBallabgarh (5)O  22:58+1223:00+122m--1-429.435203mNRFaridabad, Haryana
24PWLPalwal (8)X  23:36+523:38+72m--1-408.285200mNRPalwal, Haryana
25KSVKosi Kalan (3)XO  00:08+2000:10+212m22-365.729189mNCRKosi Kalan, Uttar Pradesh
26MTJMathura Junction (10)X  01:35+101:45+210m32-324.380179mNCRMathura, Uttar Pradesh
27BTEBharatpur Junction (5)  02:10+702:15+75m--2-290.784174mWCRBharatpur, Rajasthan
28BXNBayana Junction (3)XO  02:45+1002:47+122m--2-248.874198mWCRBayana, Rajasthan
29FSPFateh SinghpuraO  03:03+1403:05+162m--2-229.179223mWCRState Highway 1, Rajasthan
30HANHindaun City (2)  03:15+1903:17+212m--2-215.968230mWCRKarauli, Rajasthan
31SMBJShri Mahabirji (3)O  03:26+2203:28+222m--2-205.749240mWCRKarauli, Rajasthan
32GGCGangapur City (3)  04:10+904:20+1110m--2-171.664270mWCRGangapur, Rajasthan
33NNWNarayanpur Tatwara (2)X  04:36+1304:38+152m--2-154.784256mWCRSawai Madhopur, Rajasthan
34MLZMalarnaX  04:50+1404:52+142m--2-137.965236mWCRSawai Madhopur, Rajasthan
35SWMSawai Madhopur Junction (4)XO  05:20+1105:25+125m--2-107.795266mWCRSawai Madhopur, Rajasthan
36IDGIndargarh Sumerganj Mandi (2)X  05:48+1705:50+192m--2-71.482247mWCRIndargarh, Rajasthan
37LKELakheri (3)  05:58+2006:00+212m--2-60.474228mWCRBundi, Rajasthan
38KPTNKeshorai PatanX  06:38+2406:40+252m--2-13.460243mWCRSH 33, Rajasthan
39GQLGurla  06:48+2806:50+302m--2-5.48251mWCRSH 33, Rajasthan
40KOTA»Kota Junction (5)»X07:30+807:50+1220m220.051256mWCRKota, Rajasthan
41DKNTDakaniya Talav (2)  08:01+1708:03+202m229.385278mWCRKota, Rajasthan
42DARADaraX  08:30+2208:32+242m--247.555354mWCRDara, Rajasthan
43MKXMorak (2)X  08:48+2408:50+252m--262.242337mWCRMorak, Rajasthan
44RMARamganj Mandi Junction (3)X  09:03+2209:05+252m--271.357358mWCRRamganj Mandi, Rajasthan
45JHWJhalawar Road (3)  09:18+2309:20+242m--283.655361mWCRJhalawar City, Rajasthan
46BWMBhawani Mandi (3)X  09:38+2009:40+252m--2100.176384mWCRBhawani Mandi, Madhya Pradesh
47GOHGaroth (2)  09:58+2610:00+272m12122.826441mWCRMadhya Pradesh 458880, Madhya Pradesh
48SGZShamgarh (3)X  10:25+1510:30+185m--2133.667463mWCRMandsaur, Madhya Pradesh
49SVASuwasra (2)  10:42+1910:44+202m--2147.066450mWCRSuwasra, Madhya Pradesh
50CMUChau Mahla (3)X  10:58+2011:00+212m12162.435426mWCRJhalawar, Rajasthan
51THURThuriaX  11:24+1111:26+142m--2176.621430mWCRMDR 45, Madhya Pradesh
52VMAVikramgarh Alot (2)  11:48+511:50+102m12184.261443mWCRKota Division, Madhya Pradesh
53LNRLuni Richha  12:03+912:05+92m--2197.528471mWCRAlote, Madhya Pradesh
54MEPMahidpur Road  12:28+012:30+42m--2208.129493mWCRGogapur, Madhya Pradesh
55NADNagda Junction (4)  13:05+213:15+710m--2225.275468mWRNagda, Madhya Pradesh
56KUHKhachrod (2)  13:26+913:28+102m--2239.057497mWRUjjain, Madhya Pradesh
57RNHRunkheraX  13:39+813:41+72m--2249.563478mWRUjjain, Madhya Pradesh
58BODBangrodX  13:48+813:50+82m--2256.824484mWRRatlam, Madhya Pradesh
59RTM•Ratlam Junction (7)•X  14:15-114:35+320m42266.677495mWRRatlam, Madhya Pradesh
60RTIRaoti (2)  14:56+914:58+92m--2293.571409mWRState Highway 39A, Madhya Pradesh
61BOGBhairongarh (2)  15:08+915:10+92m--2305.451374mWRBhairongarh Railway Station, Madhya Pradesh
62BMIBamnia (2)  15:17+1015:19+102m--2311.442392mWRBamnia, Madhya Pradesh
63AGRAmargarh (2)  15:25+1015:27+92m--2315.557410mWRSH 39A, Madhya Pradesh
64PCNPanch Pipila (2)  15:37+915:39+82m--2325.084369mWRSH 39A, Madhya Pradesh
65THDRThandla Road (2)  15:49+1015:51+112m--2338.960317mWRJhabua, Madhya Pradesh
66MGNMeghnagar (3)  15:59+1116:01+132m--2346.973317mWRJhabua, Madhya Pradesh
67ANASAnas (2)  16:13+1616:15+152m--2361.579288mWRMadhya Pradesh 389154 ?, Madhya Pradesh
68BIOBordi (2)  16:21+1616:23+162m--2369.453289mWRNational Highway 59, Gujarat
69DHDDahod (3)  16:35+1916:40+205m--2380.076313mWRDahod, Gujarat
70LMKLimkheda  17:06+2317:08+232m--2413.068205mWRLimkheda, Gujarat
71PPDPiplod Junction  17:15+2317:17+232m--2420.979209mWRPiplod, Gujarat
72SATSant Road (2)X  17:26+2317:28+222m22432.820169mWROrwara, Gujarat
73GDAGodhra Junction (3)X  18:30+018:35+35m102453.165122mWRGodhra, Gujarat
74KRSAKharsaliya (2)  18:45+718:47+62m--2464.085107mWRPanchmahal, Gujarat
75DRLDerolX  18:56+818:58+72m12476.76881mWRKalol, Gujarat
76CPNChampaner Road JunctionX  19:09+719:11+62m--2489.27578mWRPanchmahal, Gujarat
77SMLASamlaya Junction (3)X  19:20+619:22+72m--2500.44867mWRVadodara, Gujarat
78BRCVadodara Junction (7)  19:55+1320:05+1310m32527.08936mWRVadodara, Gujarat
79MYGMiyagam Karjan (2)  20:25+2020:27+192m--2556.87229mWRKarjan, Gujarat
80BHBharuch Junction (5)  21:01+2221:03+222m42597.56219mWRBharuch, Gujarat
81AKVAnkleshwar Junction (4)X  21:12+2421:14+242m22606.97419mWRAnkleshwar, Gujarat
82KSBKosamba Junction (3)X21:29+1621:31+202m--2625.43230mWRKosamba, Gujarat
83STSurat (4)X  22:30+222:38+38m22656.87119mWRSurat 395001, Gujarat
84NVSNavsari (3)  23:03+923:05+102m--2686.47914mWRNavsari, Gujarat
85BIMBilimora Junction (4)X  23:21+1623:23+162m--2707.63611mWRBilimora, Gujarat
86BLValsad (3)  23:53+1223:55+192m32725.53815mWRValsad, Gujarat
87VAPIVapi (3)X  00:36+500:38+92m--3751.85727mWRVapi, Gujarat
88PLGPalghar (3)  02:04+1202:06+132m--3833.33719mWRPalghar, Maharashtra
89VRVirar (8)  02:56+402:58+62m--3864.4486mWRThane, Maharashtra
90BVIMumbai Borivali (8)  03:30+303:32+62m53890.22319mWRMumbai - 400092, Maharashtra
91BDTSMumbai Bandra Terminus (5)  04:20-3-13909.0-4mWRMumbai 400050, Maharashtra
Scroll to Top
Scroll to Bottom